Time;durP1;ratioP1;P1;durP2;ratioP2;P2;SDS_P1;SDS_P2;PMS_P1;PMS_P2;Temp;Humidity;BMP_temperature;BMP_pressure;BME280_temperature;BME280_humidity;BME280_pressure;Samples;Min_cycle;Max_cycle;Signal;HPM_P1;HPM_P2
2021/05/25 00:02:11;;;;;;;;;;;26.80;94.90;;;;;;5066712;28;19936;-55
2021/05/25 00:04:37;;;;;;;;;;;26.80;95.00;;;;;;5066441;28;20045;-54
2021/05/25 00:07:04;;;;;;;;;;;26.80;94.90;;;;;;5066828;28;20185;-50
2021/05/25 00:09:30;;;;;;;;;;;26.80;95.00;;;;;;5066179;28;19905;-48
2021/05/25 00:11:56;;;;;;;;;;;26.70;94.90;;;;;;5066467;28;20250;-52
2021/05/25 00:14:22;;;;;;;;;;;26.70;95.10;;;;;;5065998;28;19909;-51
2021/05/25 00:16:49;;;;;;;;;;;26.70;95.10;;;;;;5063299;28;19919;-56
2021/05/25 00:19:16;;;;;;;;;;;26.70;95.20;;;;;;5066363;28;19904;-57
2021/05/25 00:21:42;;;;;;;;;;;26.70;95.20;;;;;;5066066;28;19951;-46
2021/05/25 00:24:08;;;;;;;;;;;26.60;95.20;;;;;;5064998;28;19904;-48
2021/05/25 00:26:35;;;;;;;;;;;26.60;95.30;;;;;;5065878;28;19916;-52
2021/05/25 00:29:01;;;;;;;;;;;26.60;95.30;;;;;;5065938;28;20078;-49
2021/05/25 00:31:27;;;;;;;;;;;26.60;95.30;;;;;;5065320;28;19992;-48
2021/05/25 00:33:53;;;;;;;;;;;26.60;95.30;;;;;;5065715;28;19932;-50
2021/05/25 00:36:21;;;;;;;;;;;26.60;95.30;;;;;;5065606;28;19920;-52
2021/05/25 00:38:47;;;;;;;;;;;26.60;95.30;;;;;;5071003;28;19937;-48
2021/05/25 00:41:15;;;;;;;;;;;26.60;95.40;;;;;;5074471;28;19913;-47
2021/05/25 00:43:42;;;;;;;;;;;26.60;95.50;;;;;;5065401;28;20055;-48
2021/05/25 00:46:08;;;;;;;;;;;26.60;95.40;;;;;;5072544;28;19983;-53
2021/05/25 00:48:34;;;;;;;;;;;26.50;95.30;;;;;;5065637;28;19948;-55
2021/05/25 00:51:00;;;;;;;;;;;26.60;95.30;;;;;;5065703;28;20227;-47
2021/05/25 00:53:27;;;;;;;;;;;26.50;95.30;;;;;;5065503;28;20024;-53
2021/05/25 00:55:53;;;;;;;;;;;26.50;95.40;;;;;;5065135;28;19904;-50
2021/05/25 00:58:20;;;;;;;;;;;26.50;95.40;;;;;;5064959;28;19905;-49
2021/05/25 01:00:47;;;;;;;;;;;26.50;95.40;;;;;;5067744;28;20101;-49
2021/05/25 01:03:18;;;;;;;;;;;26.50;95.40;;;;;;5073232;28;19908;-54
2021/05/25 01:05:46;;;;;;;;;;;26.50;95.40;;;;;;5074025;28;19916;-48
2021/05/25 01:08:13;;;;;;;;;;;26.50;95.40;;;;;;5073644;28;19916;-55
2021/05/25 01:10:45;;;;;;;;;;;26.50;95.50;;;;;;5074371;28;19905;-55
2021/05/25 01:13:26;;;;;;;;;;;26.50;95.50;;;;;;5072070;28;19912;-49
2021/05/25 01:15:53;;;;;;;;;;;26.50;95.40;;;;;;5072495;28;19946;-49
2021/05/25 01:18:19;;;;;;;;;;;26.50;95.70;;;;;;5049564;28;19909;-47
2021/05/25 01:20:47;;;;;;;;;;;26.50;95.40;;;;;;5069511;28;19941;-49
2021/05/25 01:23:13;;;;;;;;;;;26.50;95.40;;;;;;5085098;28;19908;-50
2021/05/25 01:25:41;;;;;;;;;;;26.50;95.40;;;;;;5062890;28;19923;-52
2021/05/25 01:28:10;;;;;;;;;;;26.50;95.40;;;;;;5071967;28;20109;-60
2021/05/25 01:30:41;;;;;;;;;;;26.50;95.50;;;;;;5056652;28;19984;-51
2021/05/25 01:33:07;;;;;;;;;;;26.50;95.60;;;;;;5076775;28;19917;-50
2021/05/25 01:35:34;;;;;;;;;;;26.50;95.60;;;;;;5076364;28;20061;-58
2021/05/25 01:38:02;;;;;;;;;;;26.40;95.50;;;;;;5047294;28;19920;-51
2021/05/25 01:40:29;;;;;;;;;;;26.50;95.50;;;;;;5069880;28;19982;-54
2021/05/25 01:42:56;;;;;;;;;;;26.50;95.40;;;;;;5064481;28;19920;-52
2021/05/25 01:45:23;;;;;;;;;;;26.50;95.40;;;;;;5066836;28;19913;-49
2021/05/25 01:47:50;;;;;;;;;;;26.50;95.40;;;;;;5064471;28;20101;-50
2021/05/25 01:50:17;;;;;;;;;;;26.40;95.40;;;;;;5073209;28;20148;-54
2021/05/25 01:53:07;;;;;;;;;;;26.40;95.40;;;;;;5054550;28;19920;-47
2021/05/25 01:55:44;;;;;;;;;;;26.40;95.40;;;;;;5069891;28;19915;-50
2021/05/25 01:58:10;;;;;;;;;;;26.40;95.50;;;;;;5064171;28;19913;-58
2021/05/25 02:00:37;;;;;;;;;;;26.40;95.50;;;;;;5046653;28;19904;-56
2021/05/25 02:03:04;;;;;;;;;;;26.40;95.50;;;;;;5068133;28;19913;-47
2021/05/25 02:05:31;;;;;;;;;;;26.40;95.50;;;;;;5073592;28;19950;-47
2021/05/25 02:07:57;;;;;;;;;;;26.40;95.50;;;;;;5075219;28;19912;-48
2021/05/25 02:10:24;;;;;;;;;;;26.30;95.50;;;;;;5055534;28;19909;-53
2021/05/25 02:12:51;;;;;;;;;;;26.30;95.50;;;;;;5073827;28;20204;-50
2021/05/25 02:15:18;;;;;;;;;;;26.30;95.50;;;;;;5055896;28;19913;-51
2021/05/25 02:17:45;;;;;;;;;;;26.30;95.40;;;;;;5074563;28;20208;-50
2021/05/25 02:20:12;;;;;;;;;;;26.30;95.50;;;;;;5074027;28;19971;-47
2021/05/25 02:22:38;;;;;;;;;;;26.30;95.60;;;;;;5072845;28;20184;-55
2021/05/25 02:25:05;;;;;;;;;;;26.30;95.60;;;;;;5056250;28;19908;-49
2021/05/25 02:27:31;;;;;;;;;;;26.30;95.60;;;;;;5039641;28;19913;-53
2021/05/25 02:29:57;;;;;;;;;;;26.20;95.60;;;;;;5054585;28;20168;-47
2021/05/25 02:32:23;;;;;;;;;;;26.20;95.50;;;;;;5074328;28;19935;-47
2021/05/25 02:34:50;;;;;;;;;;;26.20;95.50;;;;;;5073657;28;19912;-47
2021/05/25 02:37:16;;;;;;;;;;;26.20;95.40;;;;;;5072688;28;19954;-51
2021/05/25 02:39:42;;;;;;;;;;;26.20;95.50;;;;;;5068921;28;19905;-47
2021/05/25 02:42:08;;;;;;;;;;;26.20;95.60;;;;;;5063266;28;20002;-47
2021/05/25 02:44:34;;;;;;;;;;;26.20;95.60;;;;;;5062891;28;19944;-52
2021/05/25 02:47:01;;;;;;;;;;;26.20;95.60;;;;;;5068665;28;19955;-56
2021/05/25 02:49:27;;;;;;;;;;;26.20;95.70;;;;;;5059931;28;19923;-47
2021/05/25 02:51:53;;;;;;;;;;;26.20;95.70;;;;;;5069914;28;19913;-48
2021/05/25 02:54:21;;;;;;;;;;;26.20;95.70;;;;;;5066585;28;19952;-53
2021/05/25 02:56:47;;;;;;;;;;;26.10;95.80;;;;;;5052077;28;19913;-53
2021/05/25 02:59:13;;;;;;;;;;;26.10;95.70;;;;;;5067511;28;20193;-54
2021/05/25 03:01:39;;;;;;;;;;;26.10;95.80;;;;;;5067468;28;19919;-49
2021/05/25 03:04:06;;;;;;;;;;;26.10;95.80;;;;;;5077794;28;19909;-50
2021/05/25 03:06:32;;;;;;;;;;;26.10;95.80;;;;;;5076179;28;19947;-48
2021/05/25 03:08:58;;;;;;;;;;;26.10;95.80;;;;;;5059604;28;20055;-55
2021/05/25 03:11:27;;;;;;;;;;;26.00;95.80;;;;;;5059928;28;19979;-50
2021/05/25 03:13:53;;;;;;;;;;;26.00;95.80;;;;;;5075866;28;19920;-47
2021/05/25 03:16:19;;;;;;;;;;;26.00;95.80;;;;;;5077089;28;19916;-49
2021/05/25 03:18:47;;;;;;;;;;;26.00;95.90;;;;;;5077666;28;19977;-48
2021/05/25 03:21:13;;;;;;;;;;;26.00;95.90;;;;;;5075748;28;19909;-48
2021/05/25 03:23:40;;;;;;;;;;;26.00;95.90;;;;;;5076998;28;20196;-47
2021/05/25 03:26:06;;;;;;;;;;;26.00;95.80;;;;;;5072608;28;19916;-50
2021/05/25 03:28:32;;;;;;;;;;;26.00;95.80;;;;;;5049099;28;20230;-46
2021/05/25 03:30:59;;;;;;;;;;;26.00;95.70;;;;;;5065414;28;19909;-45
2021/05/25 03:33:25;;;;;;;;;;;26.00;95.70;;;;;;5066706;28;19912;-46
2021/05/25 03:35:51;;;;;;;;;;;26.00;95.70;;;;;;5065761;28;19905;-46
2021/05/25 03:38:17;;;;;;;;;;;26.00;95.60;;;;;;5064890;28;19912;-46
2021/05/25 03:40:43;;;;;;;;;;;26.00;95.50;;;;;;5064992;28;19912;-46
2021/05/25 03:43:10;;;;;;;;;;;26.00;95.50;;;;;;5065158;28;19909;-49
2021/05/25 03:45:36;;;;;;;;;;;26.00;95.40;;;;;;5066325;28;19912;-44
2021/05/25 03:48:03;;;;;;;;;;;26.10;95.40;;;;;;5066422;28;19924;-45
2021/05/25 03:50:29;;;;;;;;;;;26.10;95.40;;;;;;5050208;28;19980;-47
2021/05/25 03:52:56;;;;;;;;;;;26.10;95.40;;;;;;5078398;28;19963;-46
2021/05/25 04:00:56;;;;;;;;;;;26.10;95.40;;;;;;5075305;28;19943;-51
2021/05/25 04:03:22;;;;;;;;;;;26.00;95.40;;;;;;5077693;28;19940;-46
2021/05/25 04:05:48;;;;;;;;;;;26.00;95.40;;;;;;5076833;28;19950;-47
2021/05/25 04:08:16;;;;;;;;;;;26.00;95.40;;;;;;5075850;28;19932;-43
2021/05/25 04:10:43;;;;;;;;;;;26.00;95.30;;;;;;5075338;28;19955;-48
2021/05/25 04:13:09;;;;;;;;;;;26.00;95.30;;;;;;5076629;28;19909;-52
2021/05/25 04:15:38;;;;;;;;;;;26.00;95.30;;;;;;5076266;28;19919;-44
2021/05/25 04:18:04;;;;;;;;;;;26.00;95.30;;;;;;5075093;28;19912;-55
2021/05/25 04:20:31;;;;;;;;;;;26.00;95.30;;;;;;5076324;28;19904;-48
2021/05/25 04:22:57;;;;;;;;;;;26.00;95.30;;;;;;5076299;28;19927;-44
2021/05/25 04:25:24;;;;;;;;;;;26.00;95.20;;;;;;5074466;28;19920;-46
2021/05/25 04:27:50;;;;;;;;;;;26.00;95.30;;;;;;5065972;28;19913;-46
2021/05/25 04:30:16;;;;;;;;;;;26.00;95.30;;;;;;5065904;28;19905;-55
2021/05/25 04:32:42;;;;;;;;;;;26.00;95.30;;;;;;5066367;28;20186;-46
2021/05/25 04:35:09;;;;;;;;;;;26.00;95.30;;;;;;5067137;28;20146;-45
2021/05/25 04:37:35;;;;;;;;;;;26.00;95.30;;;;;;5085454;28;19947;-45
2021/05/25 04:40:04;;;;;;;;;;;26.00;95.30;;;;;;5070710;28;19909;-47
2021/05/25 04:42:30;;;;;;;;;;;26.00;95.30;;;;;;5066333;28;20097;-46
2021/05/25 04:44:57;;;;;;;;;;;26.00;95.30;;;;;;5065835;28;20189;-48
2021/05/25 04:47:23;;;;;;;;;;;26.00;95.30;;;;;;5066054;28;20089;-54
2021/05/25 04:49:49;;;;;;;;;;;26.00;95.30;;;;;;5065368;28;19962;-48
2021/05/25 04:52:16;;;;;;;;;;;26.00;95.40;;;;;;5065636;28;19912;-48
2021/05/25 04:54:42;;;;;;;;;;;26.00;95.30;;;;;;5064399;28;20032;-49
2021/05/25 04:57:09;;;;;;;;;;;26.00;95.30;;;;;;5066000;28;19913;-57
2021/05/25 04:59:36;;;;;;;;;;;26.00;95.30;;;;;;5064859;28;20101;-47
2021/05/25 05:02:03;;;;;;;;;;;26.00;95.30;;;;;;5065544;28;19950;-48
2021/05/25 05:04:29;;;;;;;;;;;26.00;95.30;;;;;;5065700;28;19912;-46
2021/05/25 05:06:55;;;;;;;;;;;26.00;95.30;;;;;;5071550;28;19912;-46
2021/05/25 05:15:30;;;;;;;;;;;26.00;95.30;;;;;;5085119;28;19949;-54
2021/05/25 05:17:56;;;;;;;;;;;26.00;95.30;;;;;;5085604;28;20006;-47
2021/05/25 05:20:22;;;;;;;;;;;26.00;95.30;;;;;;5085189;28;20185;-47
2021/05/25 05:22:48;;;;;;;;;;;26.00;95.30;;;;;;5085260;28;19912;-44
2021/05/25 05:25:15;;;;;;;;;;;26.00;95.40;;;;;;5085219;28;19927;-45
2021/05/25 05:27:41;;;;;;;;;;;26.00;95.30;;;;;;5067361;28;20007;-47
2021/05/25 05:30:07;;;;;;;;;;;26.00;95.30;;;;;;5084817;28;19986;-42
2021/05/25 05:32:34;;;;;;;;;;;26.00;95.40;;;;;;5085285;28;20135;-45
2021/05/25 05:35:00;;;;;;;;;;;26.00;95.40;;;;;;5067117;28;19904;-45
2021/05/25 05:37:26;;;;;;;;;;;26.00;95.40;;;;;;5085155;28;19975;-46
2021/05/25 05:39:52;;;;;;;;;;;26.00;95.50;;;;;;5084766;28;19912;-51
2021/05/25 05:42:19;;;;;;;;;;;26.00;95.50;;;;;;5085023;28;19912;-48
2021/05/25 05:44:46;;;;;;;;;;;26.00;95.50;;;;;;5066850;28;19905;-58
2021/05/25 05:47:12;;;;;;;;;;;26.00;95.50;;;;;;5085111;28;19912;-45
2021/05/25 05:49:39;;;;;;;;;;;26.00;95.50;;;;;;5084532;28;19912;-44
2021/05/25 05:52:05;;;;;;;;;;;26.00;95.50;;;;;;5084832;28;19913;-51
2021/05/25 05:54:31;;;;;;;;;;;26.00;95.50;;;;;;5084497;28;20232;-46
2021/05/25 05:56:57;;;;;;;;;;;26.00;95.50;;;;;;5084560;28;20144;-44
2021/05/25 05:59:23;;;;;;;;;;;26.00;95.40;;;;;;5084554;28;19927;-44
2021/05/25 06:01:50;;;;;;;;;;;26.00;95.30;;;;;;5084975;28;19958;-44
2021/05/25 06:04:16;;;;;;;;;;;26.00;95.30;;;;;;5084564;28;19911;-45
2021/05/25 06:06:42;;;;;;;;;;;26.00;95.20;;;;;;5084682;28;19920;-47
2021/05/25 06:09:08;;;;;;;;;;;26.00;95.00;;;;;;5084212;28;19928;-49
2021/05/25 06:11:34;;;;;;;;;;;26.00;94.90;;;;;;5084618;28;19913;-46
2021/05/25 06:14:01;;;;;;;;;;;26.00;94.70;;;;;;5084342;28;19908;-46
2021/05/25 06:16:31;;;;;;;;;;;26.00;94.60;;;;;;5084447;28;19920;-46
2021/05/25 06:18:57;;;;;;;;;;;26.00;94.50;;;;;;5084222;28;19905;-46
2021/05/25 06:21:23;;;;;;;;;;;26.00;94.40;;;;;;5084369;28;19912;-46
2021/05/25 06:23:49;;;;;;;;;;;26.00;94.40;;;;;;5066422;28;19971;-45
2021/05/25 06:26:15;;;;;;;;;;;26.00;94.20;;;;;;5084527;28;19913;-43
2021/05/25 06:28:41;;;;;;;;;;;26.00;94.00;;;;;;5084277;28;19904;-46
2021/05/25 06:31:08;;;;;;;;;;;26.00;94.10;;;;;;5084141;28;19913;-48
2021/05/25 06:33:34;;;;;;;;;;;26.00;94.10;;;;;;5084112;28;19915;-45
2021/05/25 06:36:01;;;;;;;;;;;26.00;94.10;;;;;;5084063;28;19935;-47
2021/05/25 06:38:27;;;;;;;;;;;25.90;94.00;;;;;;5083863;28;19908;-45
2021/05/25 06:40:53;;;;;;;;;;;25.90;94.00;;;;;;5084248;28;19904;-46
2021/05/25 06:43:19;;;;;;;;;;;26.00;94.10;;;;;;5083865;28;19951;-48
2021/05/25 06:45:45;;;;;;;;;;;25.90;94.00;;;;;;5083913;28;20189;-52
2021/05/25 06:48:12;;;;;;;;;;;25.90;93.90;;;;;;5083819;28;19920;-52
2021/05/25 06:50:38;;;;;;;;;;;25.90;93.80;;;;;;5083797;28;20086;-54
2021/05/25 06:53:04;;;;;;;;;;;25.90;93.80;;;;;;5083800;28;19988;-55
2021/05/25 06:55:31;;;;;;;;;;;25.90;93.80;;;;;;5084095;28;19958;-46
2021/05/25 06:58:00;;;;;;;;;;;25.90;93.70;;;;;;5084305;28;20096;-47
2021/05/25 07:00:26;;;;;;;;;;;25.90;93.70;;;;;;5083949;28;19904;-47
2021/05/25 07:02:52;;;;;;;;;;;25.90;93.70;;;;;;5084304;28;20105;-49
2021/05/25 07:05:19;;;;;;;;;;;25.90;93.70;;;;;;5083842;28;19904;-51
2021/05/25 07:07:45;;;;;;;;;;;25.90;93.60;;;;;;5084319;28;19979;-46
2021/05/25 07:10:11;;;;;;;;;;;25.90;93.60;;;;;;5083630;28;19905;-47
2021/05/25 07:12:37;;;;;;;;;;;25.90;93.50;;;;;;5084176;28;19913;-48
2021/05/25 07:15:05;;;;;;;;;;;25.90;93.50;;;;;;5083886;28;19972;-46
2021/05/25 07:17:31;;;;;;;;;;;25.90;93.40;;;;;;5084113;28;19913;-43
2021/05/25 07:19:57;;;;;;;;;;;25.90;93.40;;;;;;5083740;28;19905;-49
2021/05/25 07:22:23;;;;;;;;;;;25.90;93.30;;;;;;5084248;28;19918;-45
2021/05/25 07:24:50;;;;;;;;;;;25.90;93.30;;;;;;5083620;28;20100;-50
2021/05/25 07:27:16;;;;;;;;;;;25.90;93.30;;;;;;5083867;28;19979;-52
2021/05/25 07:29:43;;;;;;;;;;;25.90;93.30;;;;;;5083689;28;19936;-53
2021/05/25 07:32:09;;;;;;;;;;;25.90;93.30;;;;;;5084457;28;19979;-46
2021/05/25 07:34:35;;;;;;;;;;;25.90;93.30;;;;;;5087156;28;19908;-50
2021/05/25 07:37:01;;;;;;;;;;;25.90;93.30;;;;;;5087525;28;20181;-47
2021/05/25 07:39:27;;;;;;;;;;;25.90;93.30;;;;;;5087051;28;19904;-50
2021/05/25 07:41:54;;;;;;;;;;;25.90;93.40;;;;;;5086913;28;19924;-48
2021/05/25 07:44:20;;;;;;;;;;;25.90;93.40;;;;;;5087141;28;19911;-45
2021/05/25 07:46:46;;;;;;;;;;;25.90;93.40;;;;;;5087230;28;20174;-51
2021/05/25 07:49:12;;;;;;;;;;;25.90;93.40;;;;;;5086654;28;19980;-42
2021/05/25 07:51:38;;;;;;;;;;;25.80;93.40;;;;;;5087323;28;20066;-50
2021/05/25 07:54:05;;;;;;;;;;;25.90;93.50;;;;;;5086861;28;19913;-46
2021/05/25 07:56:31;;;;;;;;;;;25.90;93.50;;;;;;5086899;28;19940;-51
2021/05/25 07:58:57;;;;;;;;;;;25.90;93.50;;;;;;5086712;28;19911;-48
2021/05/25 08:01:23;;;;;;;;;;;25.90;93.50;;;;;;5086941;28;19916;-45
2021/05/25 08:03:50;;;;;;;;;;;25.90;93.50;;;;;;5086525;28;19911;-47
2021/05/25 08:06:16;;;;;;;;;;;25.90;93.60;;;;;;5086649;28;19913;-51
2021/05/25 08:08:42;;;;;;;;;;;25.90;93.60;;;;;;5086492;28;19967;-45
2021/05/25 08:11:13;;;;;;;;;;;25.80;93.50;;;;;;5086532;28;20193;-46
2021/05/25 08:13:40;;;;;;;;;;;25.80;93.50;;;;;;5086352;28;19944;-48
2021/05/25 08:16:07;;;;;;;;;;;25.80;93.70;;;;;;5086636;28;19913;-50
2021/05/25 08:21:14;;;;;;;;;;;25.80;93.80;;;;;;5086449;28;19913;-44
2021/05/25 08:23:42;;;;;;;;;;;25.80;93.80;;;;;;5086246;28;19912;-44
2021/05/25 08:26:09;;;;;;;;;;;25.90;93.90;;;;;;5086092;28;19919;-49
2021/05/25 08:28:35;;;;;;;;;;;25.90;93.90;;;;;;5086131;28;19904;-44
2021/05/25 08:31:01;;;;;;;;;;;25.80;93.90;;;;;;5085984;28;19999;-50
2021/05/25 08:33:28;;;;;;;;;;;25.80;93.90;;;;;;5086190;28;19916;-47
2021/05/25 08:35:54;;;;;;;;;;;25.80;94.00;;;;;;5086209;28;20244;-46
2021/05/25 08:38:24;;;;;;;;;;;25.80;94.00;;;;;;5085878;28;19967;-49
2021/05/25 08:40:51;;;;;;;;;;;25.80;94.00;;;;;;5086084;28;19919;-52
2021/05/25 08:43:17;;;;;;;;;;;25.80;94.00;;;;;;5085061;28;19905;-46
2021/05/25 08:45:44;;;;;;;;;;;25.80;94.00;;;;;;5085412;28;19940;-46
2021/05/25 08:48:11;;;;;;;;;;;25.80;94.00;;;;;;5085613;28;20209;-44
2021/05/25 08:50:37;;;;;;;;;;;25.80;94.00;;;;;;5085593;28;19967;-47
2021/05/25 08:53:04;;;;;;;;;;;25.80;94.10;;;;;;5085722;28;19912;-48
2021/05/25 08:55:34;;;;;;;;;;;25.80;94.00;;;;;;5085511;28;19904;-45
2021/05/25 08:58:02;;;;;;;;;;;25.90;94.10;;;;;;5086039;28;19912;-50
2021/05/25 09:00:28;;;;;;;;;;;25.80;94.00;;;;;;5085404;28;20203;-57
2021/05/25 09:02:56;;;;;;;;;;;25.80;94.00;;;;;;5068017;28;19920;-46
2021/05/25 09:05:23;;;;;;;;;;;25.80;94.00;;;;;;5085538;28;19908;-57
2021/05/25 09:07:50;;;;;;;;;;;25.80;94.00;;;;;;5085796;28;19913;-54
2021/05/25 09:10:19;;;;;;;;;;;25.80;94.00;;;;;;5085496;28;19950;-45
2021/05/25 09:12:47;;;;;;;;;;;25.80;94.00;;;;;;5067640;28;20127;-51
2021/05/25 09:15:16;;;;;;;;;;;25.80;94.00;;;;;;5085066;28;19905;-53
2021/05/25 09:17:42;;;;;;;;;;;25.80;94.00;;;;;;5085560;28;19920;-46
2021/05/25 09:20:09;;;;;;;;;;;25.80;94.00;;;;;;5085061;28;19932;-48
2021/05/25 09:22:37;;;;;;;;;;;25.80;94.00;;;;;;5085572;28;20233;-49
2021/05/25 09:25:23;;;;;;;;;;;25.80;94.00;;;;;;5084993;28;20197;-55
2021/05/25 09:28:00;;;;;;;;;;;25.80;94.00;;;;;;5085318;28;19919;-50
2021/05/25 09:30:29;;;;;;;;;;;25.80;94.00;;;;;;5084887;28;19904;-48
2021/05/25 09:32:59;;;;;;;;;;;25.80;94.00;;;;;;5085273;28;19916;-45
2021/05/25 09:35:28;;;;;;;;;;;25.80;94.00;;;;;;5084725;28;19908;-45
2021/05/25 09:37:55;;;;;;;;;;;25.80;94.00;;;;;;5085233;28;19912;-54
2021/05/25 09:40:24;;;;;;;;;;;25.80;93.90;;;;;;5084733;28;19936;-56
2021/05/25 09:42:54;;;;;;;;;;;25.80;93.90;;;;;;5085060;28;19912;-49
2021/05/25 09:45:21;;;;;;;;;;;25.80;93.90;;;;;;5084865;28;20185;-46
2021/05/25 09:47:53;;;;;;;;;;;25.80;93.90;;;;;;5085090;28;20177;-47
2021/05/25 09:50:21;;;;;;;;;;;25.80;93.90;;;;;;5084632;28;19911;-46
2021/05/25 09:53:00;;;;;;;;;;;25.80;93.90;;;;;;5084953;28;19916;-45
2021/05/25 09:55:27;;;;;;;;;;;25.80;93.90;;;;;;5084228;28;19967;-48
2021/05/25 09:57:57;;;;;;;;;;;25.80;93.80;;;;;;5085020;28;19908;-46
2021/05/25 10:00:24;;;;;;;;;;;25.80;93.80;;;;;;5084623;28;19909;-47
2021/05/25 10:03:09;;;;;;;;;;;25.80;93.80;;;;;;5084814;28;19908;-46
2021/05/25 10:05:36;;;;;;;;;;;25.80;93.80;;;;;;5084747;28;19909;-46
2021/05/25 10:08:03;;;;;;;;;;;25.80;93.70;;;;;;5084859;28;19915;-52
2021/05/25 10:10:30;;;;;;;;;;;25.80;93.70;;;;;;5084598;28;19916;-43
2021/05/25 10:12:56;;;;;;;;;;;25.80;93.60;;;;;;5084732;28;19918;-45
2021/05/25 10:15:27;;;;;;;;;;;25.80;93.60;;;;;;5084196;28;19934;-48
2021/05/25 10:20:27;;;;;;;;;;;25.80;93.60;;;;;;5084319;28;19913;-46
2021/05/25 10:22:53;;;;;;;;;;;25.80;93.60;;;;;;5084662;28;20285;-46
2021/05/25 10:25:20;;;;;;;;;;;25.80;93.60;;;;;;5084218;28;19908;-47
2021/05/25 10:27:47;;;;;;;;;;;25.80;93.60;;;;;;5084705;28;19975;-45
2021/05/25 10:30:25;;;;;;;;;;;25.80;93.60;;;;;;5084078;28;19970;-45
2021/05/25 10:32:52;;;;;;;;;;;25.80;93.50;;;;;;5084651;28;19908;-46
2021/05/25 10:35:20;;;;;;;;;;;25.80;93.50;;;;;;5083970;28;19909;-49
2021/05/25 10:38:05;;;;;;;;;;;25.80;93.50;;;;;;5084656;28;19915;-46
2021/05/25 10:40:37;;;;;;;;;;;25.80;93.50;;;;;;5083992;28;19908;-46
2021/05/25 10:43:22;;;;;;;;;;;25.80;93.50;;;;;;5084242;28;19913;-45
2021/05/25 10:45:48;;;;;;;;;;;25.80;93.50;;;;;;5083990;28;19911;-52
2021/05/25 10:48:15;;;;;;;;;;;25.80;93.60;;;;;;5083977;28;19917;-51
2021/05/25 10:50:52;;;;;;;;;;;25.80;93.70;;;;;;5083934;28;20267;-54
2021/05/25 10:53:28;;;;;;;;;;;25.80;93.60;;;;;;5083773;28;20256;-53
2021/05/25 10:55:55;;;;;;;;;;;25.70;93.60;;;;;;5083978;28;20121;-54
2021/05/25 10:58:39;;;;;;;;;;;25.70;93.70;;;;;;5083747;28;19976;-49
2021/05/25 11:01:09;;;;;;;;;;;25.70;93.60;;;;;;5083869;28;19912;-46
2021/05/25 11:03:35;;;;;;;;;;;25.80;93.70;;;;;;5084090;28;20216;-52
2021/05/25 11:06:03;;;;;;;;;;;25.80;93.60;;;;;;5083837;28;19912;-46
2021/05/25 11:08:30;;;;;;;;;;;25.80;93.60;;;;;;5086741;28;20193;-49
2021/05/25 11:11:04;;;;;;;;;;;25.80;93.50;;;;;;5087712;28;19910;-46
2021/05/25 11:13:35;;;;;;;;;;;25.80;93.50;;;;;;5087474;28;19909;-47
2021/05/25 11:16:15;;;;;;;;;;;25.80;93.50;;;;;;5087477;28;19967;-46
2021/05/25 11:18:46;;;;;;;;;;;25.80;93.50;;;;;;5087449;28;20242;-46
2021/05/25 11:21:33;;;;;;;;;;;25.80;93.50;;;;;;5087397;28;20105;-50
2021/05/25 11:23:59;;;;;;;;;;;25.80;93.50;;;;;;5085927;28;19927;-48
2021/05/25 11:26:48;;;;;;;;;;;25.80;93.60;;;;;;5077268;28;19919;-47
2021/05/25 11:29:14;;;;;;;;;;;25.80;93.70;;;;;;5087437;28;19911;-47
2021/05/25 11:31:41;;;;;;;;;;;25.80;93.60;;;;;;5087501;28;19913;-46
2021/05/25 11:34:07;;;;;;;;;;;25.90;93.70;;;;;;5087146;28;20220;-47
2021/05/25 11:36:36;;;;;;;;;;;25.80;93.70;;;;;;5068900;28;19921;-45
2021/05/25 11:39:07;;;;;;;;;;;25.90;93.70;;;;;;5087038;28;19912;-46
2021/05/25 11:41:34;;;;;;;;;;;25.90;93.80;;;;;;5086900;28;20196;-50
2021/05/25 11:44:08;;;;;;;;;;;25.90;93.80;;;;;;5087196;28;19904;-45
2021/05/25 11:46:41;;;;;;;;;;;25.90;93.80;;;;;;5087045;28;19919;-47
2021/05/25 11:49:07;;;;;;;;;;;25.90;93.80;;;;;;5086637;28;19952;-52
2021/05/25 11:51:34;;;;;;;;;;;25.90;93.80;;;;;;5086860;28;19912;-56
2021/05/25 11:54:07;;;;;;;;;;;26.00;94.00;;;;;;5086333;28;19919;-55
2021/05/25 11:56:33;;;;;;;;;;;25.90;94.00;;;;;;5086783;28;19944;-53
2021/05/25 11:58:59;;;;;;;;;;;26.00;94.00;;;;;;5074980;28;19917;-50
2021/05/25 12:01:39;;;;;;;;;;;26.00;93.90;;;;;;5066608;28;19999;-47
2021/05/25 12:04:06;;;;;;;;;;;26.00;93.80;;;;;;5066496;28;19905;-50
2021/05/25 12:06:32;;;;;;;;;;;26.00;93.90;;;;;;5066355;28;19913;-52
2021/05/25 12:09:08;;;;;;;;;;;26.00;93.90;;;;;;5066287;28;19940;-53
2021/05/25 12:11:40;;;;;;;;;;;26.00;94.00;;;;;;5066457;28;19951;-48
2021/05/25 12:14:07;;;;;;;;;;;26.00;94.10;;;;;;5066179;28;19952;-52
2021/05/25 12:16:33;;;;;;;;;;;26.00;93.90;;;;;;5066406;28;20228;-51
2021/05/25 12:19:00;;;;;;;;;;;26.00;94.00;;;;;;5066161;28;19904;-48
2021/05/25 12:21:26;;;;;;;;;;;26.00;93.90;;;;;;5066393;28;19913;-50
2021/05/25 12:23:52;;;;;;;;;;;26.00;93.90;;;;;;5066072;28;19904;-45
2021/05/25 12:26:19;;;;;;;;;;;26.00;93.80;;;;;;5066407;28;19919;-51
2021/05/25 12:28:48;;;;;;;;;;;26.10;93.80;;;;;;5066024;28;19904;-55
2021/05/25 12:31:14;;;;;;;;;;;26.10;93.80;;;;;;5066026;28;19979;-51
2021/05/25 12:33:45;;;;;;;;;;;26.10;93.80;;;;;;5065945;28;19909;-54
2021/05/25 12:36:21;;;;;;;;;;;26.10;93.80;;;;;;5065964;28;19913;-56
2021/05/25 12:38:57;;;;;;;;;;;26.10;93.80;;;;;;5065906;28;19905;-51
2021/05/25 12:41:24;;;;;;;;;;;26.10;93.80;;;;;;5047984;28;19984;-52
2021/05/25 12:43:51;;;;;;;;;;;26.20;93.80;;;;;;5065569;28;19905;-50
2021/05/25 12:46:17;;;;;;;;;;;26.20;93.80;;;;;;5065983;28;19920;-50
2021/05/25 12:48:45;;;;;;;;;;;26.20;93.80;;;;;;5065772;28;19999;-61
2021/05/25 12:51:12;;;;;;;;;;;26.10;93.80;;;;;;5065680;28;19979;-59
2021/05/25 12:53:52;;;;;;;;;;;26.20;93.80;;;;;;5065750;28;19921;-65
2021/05/25 12:56:19;;;;;;;;;;;26.20;93.80;;;;;;5065610;28;19912;-53
2021/05/25 12:58:47;;;;;;;;;;;26.20;93.80;;;;;;5065494;28;19905;-53
2021/05/25 13:01:26;;;;;;;;;;;26.20;93.70;;;;;;5065659;28;19912;-50
2021/05/25 13:03:54;;;;;;;;;;;26.20;93.70;;;;;;5065283;28;19905;-52
2021/05/25 13:06:23;;;;;;;;;;;26.20;93.70;;;;;;5065518;28;19913;-51
2021/05/25 13:08:52;;;;;;;;;;;26.20;93.70;;;;;;5065224;28;19905;-50
2021/05/25 13:11:19;;;;;;;;;;;26.20;93.70;;;;;;5065384;28;19921;-48
2021/05/25 13:13:47;;;;;;;;;;;26.30;93.80;;;;;;5065281;28;19992;-56
2021/05/25 13:16:26;;;;;;;;;;;26.30;93.90;;;;;;5065302;28;19912;-51
2021/05/25 13:18:52;;;;;;;;;;;26.30;94.00;;;;;;5065023;28;19905;-50
2021/05/25 13:21:20;;;;;;;;;;;26.30;94.00;;;;;;5065262;28;19913;-48
2021/05/25 13:24:05;;;;;;;;;;;26.30;94.00;;;;;;5065029;28;19933;-50
2021/05/25 13:26:32;;;;;;;;;;;26.30;94.10;;;;;;5065089;28;19913;-52
2021/05/25 13:29:11;;;;;;;;;;;26.30;94.40;;;;;;5064878;28;19986;-50
2021/05/25 13:31:41;;;;;;;;;;;26.30;94.70;;;;;;5064610;28;19975;-51
2021/05/25 13:34:09;;;;;;;;;;;26.30;94.50;;;;;;5064907;28;19915;-55
2021/05/25 13:36:36;;;;;;;;;;;26.30;95.00;;;;;;5065195;28;19929;-53
2021/05/25 13:39:04;;;;;;;;;;;26.30;94.70;;;;;;5064911;28;20186;-49
2021/05/25 13:41:31;;;;;;;;;;;26.40;94.80;;;;;;5064852;28;19919;-56
2021/05/25 13:43:57;;;;;;;;;;;26.40;94.80;;;;;;5064743;28;19912;-54
2021/05/25 13:46:23;;;;;;;;;;;26.40;95.00;;;;;;5065026;28;19913;-53
2021/05/25 13:48:55;;;;;;;;;;;26.50;95.10;;;;;;5064568;28;19913;-54
2021/05/25 13:51:21;;;;;;;;;;;26.50;95.00;;;;;;5064733;28;20211;-54
2021/05/25 13:53:48;;;;;;;;;;;26.50;95.00;;;;;;5064598;28;20101;-56
2021/05/25 13:56:22;;;;;;;;;;;26.50;95.00;;;;;;5064688;28;19913;-52
2021/05/25 13:58:50;;;;;;;;;;;26.50;95.00;;;;;;5064572;28;20160;-47
2021/05/25 14:03:46;;;;;;;;;;;26.50;94.80;;;;;;5064379;28;19905;-51
2021/05/25 14:06:13;;;;;;;;;;;26.50;94.60;;;;;;5064479;28;19964;-55
2021/05/25 14:08:39;;;;;;;;;;;26.50;94.50;;;;;;5064461;28;20216;-50
2021/05/25 14:11:05;;;;;;;;;;;26.50;94.50;;;;;;5064057;28;20209;-53
2021/05/25 14:13:31;;;;;;;;;;;26.50;94.50;;;;;;5064316;28;19909;-53
2021/05/25 14:15:58;;;;;;;;;;;26.50;94.60;;;;;;5064440;28;19925;-55
2021/05/25 14:18:24;;;;;;;;;;;26.50;94.70;;;;;;5064030;28;19904;-55
2021/05/25 14:20:50;;;;;;;;;;;26.50;94.70;;;;;;5064193;28;19972;-53
2021/05/25 14:23:16;;;;;;;;;;;26.50;94.80;;;;;;5064140;28;19916;-55
2021/05/25 14:25:43;;;;;;;;;;;26.50;94.70;;;;;;5063913;28;19932;-57
2021/05/25 14:28:10;;;;;;;;;;;26.60;94.80;;;;;;5064088;28;19909;-54
2021/05/25 14:30:37;;;;;;;;;;;26.70;94.70;;;;;;5064142;28;19947;-51
2021/05/25 14:33:03;;;;;;;;;;;26.70;94.50;;;;;;5063805;28;19997;-56
2021/05/25 14:35:29;;;;;;;;;;;26.70;94.30;;;;;;5063938;28;19913;-52
2021/05/25 14:37:56;;;;;;;;;;;26.80;94.40;;;;;;5064548;28;19905;-55
2021/05/25 14:40:22;;;;;;;;;;;26.80;94.30;;;;;;5064030;28;19947;-53